Huvudsida
METAR-TAF:

METAR-TAF

Flygplatser :

Vidsels flygplats

Vidsel, Sverige

latitud: 65-52N, longitud: 020-08E, höjd: 180 m

Aktuellt väderrapport

Denna rapport gjordes för 27 minuter sedan, klockan 15:20 UTC
Vind 10 kt från syd, varierande mellan syd/sydost och sydväst
Temperatur 19°C
Fuktighet 64%
Tryck 1009 hPa
Sikt 10 km eller mer

METAR: ESPE 161520Z AUTO 18010KT 150V220 9999 BKN045/// OVC110/// 19/12 Q1009

Tid: 17:47 (15:47 UTC)

Väderprognos

Denna rapport gjordes för 4 timmar och 27 minuter sedan, klockan 11:20 UTC
Prognos gäller från 16 kl. 12 UTC till 16 kl. 14 UTC
Vind 12 kt från syd
Sikt 10 km eller mer
Inga moln under 1 500 m eller inga cumulonimbus

TAF: ESPE 161120Z 1612/1614 18012KT CAVOK RMK MIL

Aktuella väderrapporter och prognoser från 4000 flygplatser (METAR- och TAF-rapporter).

De tillgängliga stationerna syns som gula och röda prickar på kartan.

För musen över prickarna för att se namnen på stationerna.

Klicka sedan för att få väderrapporter och prognoser.

För att ändra kartan: Klicka på de gröna knapparna med ett svart kors på för att zooma in; den gröna knappen med ett streck på för att zooma ut; eller på de gröna pilarna för angränsande kartor.


METAR-TAF: